Time;durP1;ratioP1;P1;durP2;ratioP2;P2;SDS_P1;SDS_P2;PMS_P1;PMS_P2;Temp;Humidity;BMP_temperature;BMP_pressure;BME280_temperature;BME280_humidity;BME280_pressure;Samples;Min_cycle;Max_cycle;Signal;HPM_P1;HPM_P2
2023/09/04 00:02:53;;;;;;;5.32;3.10;;;23.40;99.90;;;;;;6201730;28;93876;-71
2023/09/04 00:05:55;;;;;;;4.82;3.50;;;23.40;99.90;;;;;;6200630;28;94288;-72
2023/09/04 00:08:58;;;;;;;3.42;3.13;;;23.40;99.90;;;;;;6200596;28;94082;-72
2023/09/04 00:12:00;;;;;;;3.80;3.38;;;23.40;99.90;;;;;;6195258;28;93612;-73
2023/09/04 00:15:02;;;;;;;3.65;3.10;;;23.30;99.90;;;;;;6185500;28;94081;-71
2023/09/04 00:18:06;;;;;;;3.25;2.95;;;23.30;99.90;;;;;;6198995;28;94166;-71
2023/09/04 00:21:08;;;;;;;3.65;3.13;;;23.30;99.90;;;;;;6195022;28;95192;-73
2023/09/04 00:24:10;;;;;;;3.80;3.10;;;23.30;99.90;;;;;;6200342;28;94220;-72
2023/09/04 00:27:12;;;;;;;3.80;3.40;;;23.30;99.90;;;;;;6198486;28;94052;-72
2023/09/04 00:30:15;;;;;;;3.70;3.30;;;23.30;99.90;;;;;;6191050;28;94114;-72
2023/09/04 00:33:18;;;;;;;3.72;3.42;;;23.30;99.90;;;;;;6200582;28;94285;-72
2023/09/04 00:36:20;;;;;;;3.40;3.10;;;23.30;99.90;;;;;;6195577;28;94053;-72
2023/09/04 00:39:22;;;;;;;3.45;3.05;;;23.30;99.90;;;;;;6201964;28;94367;-73
2023/09/04 00:42:24;;;;;;;3.22;3.00;;;23.30;99.90;;;;;;6197996;28;93377;-73
2023/09/04 00:45:26;;;;;;;3.70;3.40;;;23.40;99.90;;;;;;6192426;28;94024;-73
2023/09/04 00:48:30;;;;;;;4.20;3.30;;;23.30;99.90;;;;;;6196203;28;94511;-73
2023/09/04 00:51:32;;;;;;;4.63;3.60;;;23.30;99.90;;;;;;6197050;28;95035;-73
2023/09/04 00:54:35;;;;;;;4.60;3.90;;;23.30;99.90;;;;;;6201507;28;93966;-73
2023/09/04 00:57:39;;;;;;;3.88;3.47;;;23.30;99.90;;;;;;6198037;28;94161;-73
2023/09/04 01:00:42;;;;;;;3.78;3.47;;;23.30;99.90;;;;;;6197191;28;94513;-71
2023/09/04 01:03:45;;;;;;;4.28;3.88;;;23.30;99.90;;;;;;6205018;28;94106;-72
2023/09/04 01:06:47;;;;;;;3.72;3.40;;;23.30;99.90;;;;;;6195607;28;94307;-73
2023/09/04 01:09:49;;;;;;;3.83;3.53;;;23.30;99.90;;;;;;6195662;28;94063;-73
2023/09/04 01:12:54;;;;;;;4.65;3.97;;;23.30;99.90;;;;;;6188349;28;93539;-71
2023/09/04 01:15:57;;;;;;;4.10;3.63;;;23.30;99.90;;;;;;6197009;28;94561;-71
2023/09/04 01:19:01;;;;;;;4.43;4.03;;;23.20;99.90;;;;;;6205082;28;94050;-71
2023/09/04 01:22:06;;;;;;;4.03;3.70;;;23.30;99.90;;;;;;6200082;28;95092;-72
2023/09/04 01:25:09;;;;;;;4.28;3.88;;;23.30;99.90;;;;;;6182172;28;94196;-72
2023/09/04 01:28:19;;;;;;;4.28;3.88;;;23.30;99.90;;;;;;6198634;28;94057;-72
2023/09/04 01:34:49;;;;;;;4.20;3.80;;;23.30;99.90;;;;;;6204526;28;92333;-73
2023/09/04 01:37:53;;;;;;;5.70;4.00;;;23.20;99.90;;;;;;6195833;28;94003;-71
2023/09/04 01:40:55;;;;;;;4.63;4.22;;;23.30;99.90;;;;;;6186716;28;94093;-72
2023/09/04 01:43:58;;;;;;;5.15;4.40;;;23.20;99.90;;;;;;6193620;28;93369;-72
2023/09/04 01:47:00;;;;;;;4.40;4.00;;;23.30;99.90;;;;;;6204464;28;93632;-72
2023/09/04 01:50:02;;;;;;;4.60;4.20;;;23.20;99.90;;;;;;6202268;28;94375;-73
2023/09/04 01:53:05;;;;;;;4.85;4.07;;;23.20;99.90;;;;;;6197094;28;95009;-73
2023/09/04 01:56:08;;;;;;;5.00;4.50;;;23.20;99.90;;;;;;6202285;28;94409;-72
2023/09/04 01:59:10;;;;;;;6.25;4.60;;;23.20;99.90;;;;;;6192597;28;94066;-73
2023/09/04 02:02:11;;;;;;;5.60;5.00;;;23.20;99.90;;;;;;6198650;28;92749;-73
2023/09/04 02:05:14;;;;;;;5.63;4.57;;;23.20;99.90;;;;;;6194292;28;95100;-73
2023/09/04 02:08:17;;;;;;;5.05;4.65;;;23.20;99.90;;;;;;6200617;28;94219;-73
2023/09/04 02:11:19;;;;;;;4.80;4.30;;;23.20;99.90;;;;;;6195982;28;94104;-74
2023/09/04 02:14:21;;;;;;;4.80;4.40;;;23.20;99.90;;;;;;6199326;28;93280;-74
2023/09/04 02:17:23;;;;;;;5.25;4.75;;;23.20;99.90;;;;;;6202385;28;94093;-74
2023/09/04 02:20:25;;;;;;;4.97;4.43;;;23.20;99.90;;;;;;6203132;28;94096;-74
2023/09/04 02:23:28;;;;;;;4.78;4.38;;;23.20;99.90;;;;;;6199042;28;97254;-73
2023/09/04 02:26:31;;;;;;;5.78;4.70;;;23.20;99.90;;;;;;6201709;28;94557;-73
2023/09/04 02:29:32;;;;;;;5.32;4.82;;;23.20;99.90;;;;;;6199732;28;94014;-72
2023/09/04 02:32:35;;;;;;;5.43;4.43;;;23.20;99.90;;;;;;6194020;28;94142;-73
2023/09/04 02:35:37;;;;;;;5.07;4.57;;;23.20;99.90;;;;;;6204295;28;94099;-73
2023/09/04 02:38:41;;;;;;;5.60;5.10;;;23.20;99.90;;;;;;6196183;28;94389;-73
2023/09/04 02:41:43;;;;;;;5.68;5.00;;;23.20;99.90;;;;;;6190759;28;94100;-72
2023/09/04 02:44:45;;;;;;;5.75;5.15;;;23.20;99.90;;;;;;6200185;28;92244;-72
2023/09/04 02:47:47;;;;;;;5.13;4.63;;;23.10;99.90;;;;;;6196196;28;94710;-72
2023/09/04 02:50:49;;;;;;;5.50;5.00;;;23.10;99.90;;;;;;6203518;28;94103;-73
2023/09/04 02:53:52;;;;;;;5.53;5.03;;;23.10;99.90;;;;;;6193138;28;95160;-72
2023/09/04 02:56:54;;;;;;;5.05;4.57;;;23.10;99.90;;;;;;6189949;28;94145;-73
2023/09/04 02:59:56;;;;;;;5.03;4.63;;;23.10;99.90;;;;;;6203987;28;94551;-73
2023/09/04 03:02:59;;;;;;;4.80;4.40;;;23.10;99.90;;;;;;6198678;28;94350;-72
2023/09/04 03:06:08;;;;;;;5.18;4.68;;;23.10;99.90;;;;;;6199062;28;94555;-73
2023/09/04 03:09:13;;;;;;;4.80;4.30;;;23.10;99.90;;;;;;6199663;28;94064;-72
2023/09/04 03:12:15;;;;;;;5.72;4.50;;;23.10;99.90;;;;;;6200663;28;94079;-72
2023/09/04 03:15:17;;;;;;;5.68;4.88;;;23.10;99.90;;;;;;6201961;28;93511;-72
2023/09/04 03:18:19;;;;;;;5.82;5.28;;;23.10;99.90;;;;;;6203942;28;93190;-72
2023/09/04 03:21:21;;;;;;;5.55;5.05;;;23.10;99.90;;;;;;6194077;28;94032;-73
2023/09/04 03:24:26;;;;;;;4.50;4.18;;;23.10;99.90;;;;;;6202370;28;95042;-71
2023/09/04 03:27:28;;;;;;;4.80;4.40;;;23.10;99.90;;;;;;6197070;28;94109;-72
2023/09/04 03:30:30;;;;;;;5.47;4.72;;;23.10;99.90;;;;;;6195507;28;92088;-71
2023/09/04 03:33:32;;;;;;;4.72;4.32;;;23.10;99.90;;;;;;6195615;28;94118;-71
2023/09/04 03:36:34;;;;;;;5.40;4.90;;;23.10;99.90;;;;;;6189706;28;94103;-72
2023/09/04 03:39:38;;;;;;;5.25;4.75;;;23.00;99.90;;;;;;6184482;28;94037;-72
2023/09/04 03:42:59;;;;;;;5.20;4.70;;;23.10;99.90;;;;;;6194843;28;94079;-71
2023/09/04 03:46:01;;;;;;;5.60;4.85;;;23.00;99.90;;;;;;6191752;28;93389;-69
2023/09/04 03:49:04;;;;;;;5.03;4.35;;;23.00;99.90;;;;;;6183409;28;93962;-68
2023/09/04 03:52:06;;;;;;;7.38;5.13;;;23.00;99.90;;;;;;6189904;28;94423;-69
2023/09/04 03:55:12;;;;;;;5.60;5.00;;;23.10;99.90;;;;;;6192092;28;95353;-70
2023/09/04 03:58:14;;;;;;;5.82;4.40;;;23.00;99.90;;;;;;6183674;28;93799;-72
2023/09/04 04:01:16;;;;;;;7.90;4.90;;;23.00;99.90;;;;;;6187948;28;94122;-69
2023/09/04 04:04:18;;;;;;;8.18;5.07;;;23.00;99.90;;;;;;6191118;28;94074;-69
2023/09/04 04:07:20;;;;;;;4.97;4.47;;;23.10;99.90;;;;;;6189248;28;94125;-71
2023/09/04 04:10:24;;;;;;;7.45;4.75;;;23.10;99.90;;;;;;6184576;28;94452;-70
2023/09/04 04:13:26;;;;;;;5.93;4.43;;;23.10;99.90;;;;;;6189673;28;94339;-69
2023/09/04 04:16:28;;;;;;;6.20;4.40;;;23.10;99.90;;;;;;6186516;28;92410;-69
2023/09/04 04:19:30;;;;;;;9.73;5.03;;;23.10;99.90;;;;;;6190304;28;93086;-70
2023/09/04 04:22:32;;;;;;;5.60;4.80;;;23.10;99.90;;;;;;6192944;28;94228;-70
2023/09/04 04:25:35;;;;;;;6.68;5.13;;;23.10;99.90;;;;;;6193265;28;95066;-69
2023/09/04 04:28:37;;;;;;;7.57;5.30;;;23.10;99.90;;;;;;6204923;28;94175;-70
2023/09/04 04:31:39;;;;;;;5.85;5.15;;;23.10;99.90;;;;;;6204812;28;94113;-69
2023/09/04 04:34:41;;;;;;;6.60;4.82;;;23.10;99.90;;;;;;6194869;28;94249;-69
2023/09/04 04:37:43;;;;;;;5.72;5.07;;;23.10;99.90;;;;;;6199820;28;94695;-69
2023/09/04 04:40:47;;;;;;;7.65;5.40;;;23.10;99.90;;;;;;6205480;28;94329;-69
2023/09/04 04:43:49;;;;;;;6.03;5.43;;;23.10;99.90;;;;;;6203493;28;94064;-69
2023/09/04 04:46:51;;;;;;;5.95;5.35;;;23.10;99.90;;;;;;6195750;28;93354;-69
2023/09/04 04:49:53;;;;;;;6.40;5.80;;;23.10;99.90;;;;;;6202112;28;94081;-70
2023/09/04 04:52:55;;;;;;;7.03;5.40;;;23.10;99.90;;;;;;6198103;28;94457;-70
2023/09/04 04:56:01;;;;;;;6.53;5.75;;;23.10;99.90;;;;;;6190748;28;95284;-69
2023/09/04 04:59:03;;;;;;;5.93;5.30;;;23.10;99.90;;;;;;6205558;28;94134;-69
2023/09/04 05:02:05;;;;;;;6.18;5.55;;;23.10;99.90;;;;;;6196927;28;94090;-69
2023/09/04 05:05:08;;;;;;;6.28;5.68;;;23.10;99.90;;;;;;6205608;28;93102;-69
2023/09/04 05:08:10;;;;;;;6.15;5.55;;;23.10;99.90;;;;;;6192010;28;94366;-69
2023/09/04 05:11:13;;;;;;;6.55;5.95;;;23.10;99.90;;;;;;6196593;28;94489;-69
2023/09/04 05:14:15;;;;;;;6.70;5.95;;;23.10;99.90;;;;;;6203753;28;94463;-69
2023/09/04 05:17:17;;;;;;;6.85;5.60;;;23.10;99.90;;;;;;6198368;28;93505;-69
2023/09/04 05:20:19;;;;;;;6.55;5.85;;;23.10;99.90;;;;;;6202766;28;94099;-69
2023/09/04 05:23:22;;;;;;;6.60;5.60;;;23.10;99.90;;;;;;6204489;28;94151;-69
2023/09/04 05:26:25;;;;;;;6.28;5.70;;;23.10;99.90;;;;;;6193790;28;95009;-69
2023/09/04 05:29:27;;;;;;;8.63;6.07;;;23.10;99.90;;;;;;6181007;28;94020;-68
2023/09/04 05:32:29;;;;;;;6.40;5.80;;;23.00;99.90;;;;;;6203315;28;94231;-69
2023/09/04 05:35:31;;;;;;;6.50;5.88;;;23.10;99.90;;;;;;6195714;28;94110;-69
2023/09/04 05:38:33;;;;;;;6.55;5.95;;;23.10;99.90;;;;;;6204252;28;94135;-69
2023/09/04 05:41:36;;;;;;;6.95;5.85;;;23.10;99.90;;;;;;6201610;28;94167;-69
2023/09/04 05:44:38;;;;;;;6.43;5.82;;;23.10;99.90;;;;;;6198582;28;94212;-69
2023/09/04 05:47:40;;;;;;;6.85;6.20;;;23.10;99.90;;;;;;6198553;28;93313;-70
2023/09/04 05:50:42;;;;;;;6.80;6.13;;;23.10;99.90;;;;;;6200675;28;94134;-69
2023/09/04 05:53:44;;;;;;;6.72;6.03;;;23.10;99.90;;;;;;6196137;28;93855;-69
2023/09/04 05:56:47;;;;;;;6.38;5.78;;;23.10;99.90;;;;;;6194265;28;96618;-69
2023/09/04 05:59:50;;;;;;;6.60;5.80;;;23.10;99.90;;;;;;6203626;28;94610;-69
2023/09/04 06:02:52;;;;;;;6.80;6.10;;;23.10;99.90;;;;;;6204367;28;94206;-69
2023/09/04 06:05:54;;;;;;;6.70;6.10;;;23.10;99.90;;;;;;6196441;28;94084;-69
2023/09/04 06:08:56;;;;;;;6.30;5.70;;;23.10;99.90;;;;;;6199971;28;94097;-70
2023/09/04 06:11:59;;;;;;;6.78;6.18;;;23.10;99.90;;;;;;6202424;28;94128;-69
2023/09/04 06:15:01;;;;;;;6.65;5.88;;;23.10;99.90;;;;;;6203641;28;94263;-69
2023/09/04 06:18:04;;;;;;;7.05;6.20;;;23.10;99.90;;;;;;6202835;28;93933;-69
2023/09/04 06:21:06;;;;;;;6.32;5.72;;;23.10;99.90;;;;;;6193805;28;94450;-70
2023/09/04 06:24:08;;;;;;;6.35;5.75;;;23.10;99.90;;;;;;6202753;28;94042;-69
2023/09/04 06:27:11;;;;;;;6.68;5.65;;;23.10;99.90;;;;;;6182827;28;94959;-69
2023/09/04 06:30:13;;;;;;;6.55;5.95;;;23.10;99.90;;;;;;6195213;28;93955;-69
2023/09/04 06:33:15;;;;;;;6.07;5.47;;;23.10;99.90;;;;;;6203031;28;94228;-69
2023/09/04 06:36:17;;;;;;;6.40;5.57;;;23.10;99.90;;;;;;6201752;28;94261;-69
2023/09/04 06:39:19;;;;;;;6.22;5.63;;;23.10;99.90;;;;;;6203289;28;94118;-69
2023/09/04 06:42:23;;;;;;;6.93;6.28;;;23.10;99.90;;;;;;6199932;28;94156;-69
2023/09/04 06:45:24;;;;;;;6.40;5.80;;;23.10;99.90;;;;;;6199078;28;94035;-70
2023/09/04 06:48:26;;;;;;;6.18;5.57;;;23.10;99.90;;;;;;6196852;28;93284;-69
2023/09/04 06:51:29;;;;;;;6.38;5.78;;;23.10;99.90;;;;;;6203999;28;94835;-69
2023/09/04 06:54:31;;;;;;;5.90;5.40;;;23.10;99.90;;;;;;6202562;28;92905;-69
2023/09/04 06:57:34;;;;;;;6.35;5.75;;;23.20;99.90;;;;;;6195711;28;95276;-70
2023/09/04 07:00:36;;;;;;;6.50;5.90;;;23.10;99.90;;;;;;6198699;28;94201;-69
2023/09/04 07:03:38;;;;;;;6.47;5.88;;;23.20;99.90;;;;;;6197684;28;94109;-69
2023/09/04 07:06:40;;;;;;;6.70;6.10;;;23.10;99.90;;;;;;6202719;28;93147;-70
2023/09/04 07:09:42;;;;;;;6.97;6.32;;;23.20;99.90;;;;;;6202727;28;95095;-69
2023/09/04 07:12:46;;;;;;;6.72;6.10;;;23.20;99.90;;;;;;6201568;28;94072;-69
2023/09/04 07:15:48;;;;;;;6.53;5.93;;;23.20;99.90;;;;;;6202064;28;94060;-69
2023/09/04 07:18:49;;;;;;;6.50;5.90;;;23.20;99.90;;;;;;6203388;28;93177;-69
2023/09/04 07:21:51;;;;;;;6.90;6.20;;;23.20;99.90;;;;;;6197590;28;94069;-70
2023/09/04 07:24:53;;;;;;;6.65;5.90;;;23.20;99.90;;;;;;6197972;28;94388;-69
2023/09/04 07:27:57;;;;;;;6.90;6.20;;;23.20;99.90;;;;;;6193259;28;95164;-69
2023/09/04 07:31:14;;;;;;;6.82;6.18;;;23.20;99.90;;;;;;6194517;28;94057;-69
2023/09/04 07:34:17;;;;;;;7.15;6.45;;;23.10;99.90;;;;;;6202843;28;94082;-69
2023/09/04 07:37:19;;;;;;;6.88;6.18;;;23.20;99.90;;;;;;6202683;28;94794;-69
2023/09/04 07:40:21;;;;;;;7.10;6.35;;;23.20;99.90;;;;;;6202847;28;94147;-69
2023/09/04 07:43:25;;;;;;;6.80;6.20;;;23.20;99.90;;;;;;6201447;28;94376;-69
2023/09/04 07:46:27;;;;;;;7.53;6.82;;;23.20;99.90;;;;;;6190239;28;92932;-69
2023/09/04 07:49:29;;;;;;;6.80;6.13;;;23.20;99.90;;;;;;6199004;28;93461;-69
2023/09/04 07:52:31;;;;;;;6.80;6.20;;;23.20;99.90;;;;;;6201872;28;94821;-69
2023/09/04 07:55:33;;;;;;;7.05;6.35;;;23.20;99.90;;;;;;6196583;28;93998;-69
2023/09/04 07:58:39;;;;;;;7.40;6.70;;;23.20;99.90;;;;;;6192436;28;95589;-70
2023/09/04 08:01:41;;;;;;;6.90;6.20;;;23.20;99.90;;;;;;6206635;28;92778;-69
2023/09/04 08:04:43;;;;;;;7.25;6.55;;;23.20;99.90;;;;;;6204505;28;94034;-70
2023/09/04 08:07:45;;;;;;;7.20;6.47;;;23.20;99.90;;;;;;6206408;28;94491;-70
2023/09/04 08:10:50;;;;;;;7.15;6.47;;;23.20;99.90;;;;;;6205103;28;94070;-69
2023/09/04 08:13:54;;;;;;;7.40;6.70;;;23.20;99.90;;;;;;6192827;28;94130;-69
2023/09/04 08:16:57;;;;;;;7.60;6.90;;;23.20;99.90;;;;;;6196971;28;94334;-69
2023/09/04 08:20:00;;;;;;;7.40;6.70;;;23.20;99.90;;;;;;6200490;28;93295;-68
2023/09/04 08:23:03;;;;;;;7.97;7.18;;;23.20;99.90;;;;;;6195932;28;94501;-67
2023/09/04 08:26:06;;;;;;;7.68;6.97;;;23.20;99.90;;;;;;6198579;28;94077;-68
2023/09/04 08:29:09;;;;;;;7.30;6.60;;;23.20;99.90;;;;;;6193232;28;95517;-67
2023/09/04 08:32:11;;;;;;;8.00;7.22;;;23.20;99.90;;;;;;6205946;28;94142;-67
2023/09/04 08:35:13;;;;;;;7.32;6.65;;;23.20;99.90;;;;;;6196705;28;94132;-68
2023/09/04 08:38:15;;;;;;;7.53;6.82;;;23.20;99.90;;;;;;6197910;28;93168;-67
2023/09/04 08:41:19;;;;;;;7.55;6.85;;;23.20;99.90;;;;;;6204888;28;94087;-67
2023/09/04 08:44:23;;;;;;;7.35;6.65;;;23.20;99.90;;;;;;6192798;28;93110;-67
2023/09/04 08:47:26;;;;;;;6.93;6.32;;;23.20;99.90;;;;;;6205319;28;94160;-67
2023/09/04 08:50:28;;;;;;;7.55;6.85;;;23.20;99.90;;;;;;6205448;28;92323;-70
2023/09/04 08:53:31;;;;;;;6.88;6.28;;;23.20;99.90;;;;;;6205725;28;94732;-70
2023/09/04 08:56:33;;;;;;;7.03;6.43;;;23.20;99.90;;;;;;6203404;28;94109;-67
2023/09/04 08:59:37;;;;;;;7.40;6.70;;;23.20;99.90;;;;;;6203213;28;95052;-67
2023/09/04 09:02:40;;;;;;;7.57;6.88;;;23.30;99.90;;;;;;6205576;28;94073;-67
2023/09/04 09:05:44;;;;;;;7.28;6.57;;;23.20;99.90;;;;;;6204609;28;93227;-67
2023/09/04 09:08:47;;;;;;;7.00;6.40;;;23.30;99.90;;;;;;6205362;28;94099;-67
2023/09/04 09:11:53;;;;;;;7.82;7.13;;;23.20;99.90;;;;;;6193619;28;94263;-68
2023/09/04 09:14:59;;;;;;;7.10;6.40;;;23.20;99.90;;;;;;6203642;28;94060;-67
2023/09/04 09:18:02;;;;;;;7.50;6.80;;;23.20;99.90;;;;;;6205501;28;92952;-67
2023/09/04 09:21:22;;;;;;;7.10;6.50;;;23.20;99.90;;;;;;6200647;28;93439;-68
2023/09/04 09:24:24;;;;;;;7.22;6.55;;;23.20;99.90;;;;;;6199602;28;94388;-68
2023/09/04 09:27:29;;;;;;;7.25;6.55;;;23.20;99.90;;;;;;6192653;28;93956;-68
2023/09/04 09:30:38;;;;;;;7.53;6.82;;;23.20;99.90;;;;;;6204334;28;95160;-67
2023/09/04 09:33:40;;;;;;;7.03;6.43;;;23.20;99.90;;;;;;6194361;28;94114;-67
2023/09/04 09:36:42;;;;;;;7.13;6.50;;;23.20;99.90;;;;;;6200585;28;94135;-67
2023/09/04 09:39:44;;;;;;;7.60;6.90;;;23.20;99.90;;;;;;6203624;28;93998;-68
2023/09/04 09:42:46;;;;;;;6.90;6.30;;;23.20;99.90;;;;;;6203946;28;94095;-68
2023/09/04 09:45:51;;;;;;;7.32;6.68;;;23.30;99.90;;;;;;6204577;28;94131;-67
2023/09/04 09:48:53;;;;;;;7.47;6.78;;;23.20;99.90;;;;;;6204317;28;94011;-68
2023/09/04 09:51:55;;;;;;;7.50;6.80;;;23.20;99.90;;;;;;6203314;28;93381;-68
2023/09/04 09:54:57;;;;;;;6.68;6.07;;;23.20;99.90;;;;;;6199963;28;94025;-68
2023/09/04 09:58:01;;;;;;;7.07;6.47;;;23.20;99.90;;;;;;6194251;28;93909;-68
2023/09/04 10:01:04;;;;;;;7.13;6.53;;;23.20;99.90;;;;;;6203899;28;94935;-67
2023/09/04 10:04:08;;;;;;;6.80;6.20;;;23.30;99.90;;;;;;6203232;28;94044;-68
2023/09/04 10:07:15;;;;;;;7.10;6.50;;;23.20;99.90;;;;;;6203210;28;94012;-67
2023/09/04 10:10:17;;;;;;;7.00;6.35;;;23.20;99.90;;;;;;6196038;28;93965;-67
2023/09/04 10:13:27;;;;;;;7.20;6.50;;;23.30;99.90;;;;;;6202504;28;94454;-68
2023/09/04 10:16:35;;;;;;;7.40;6.70;;;23.20;99.90;;;;;;6202057;28;94050;-67
2023/09/04 10:19:39;;;;;;;6.35;5.75;;;23.20;99.90;;;;;;6202145;28;94146;-67
2023/09/04 10:22:46;;;;;;;7.20;6.60;;;23.20;99.90;;;;;;6200789;28;93423;-67
2023/09/04 10:25:53;;;;;;;6.68;6.07;;;23.20;99.90;;;;;;6204586;28;95910;-67
2023/09/04 10:29:03;;;;;;;6.55;5.95;;;23.20;99.90;;;;;;6196168;28;94296;-67
2023/09/04 10:32:08;;;;;;;6.85;6.25;;;23.30;99.90;;;;;;6203428;28;95010;-67
2023/09/04 10:35:10;;;;;;;6.75;6.15;;;23.30;99.90;;;;;;6200010;28;94192;-67
2023/09/04 10:38:13;;;;;;;6.60;6.00;;;23.30;99.90;;;;;;6195112;28;95571;-67
2023/09/04 10:41:17;;;;;;;6.47;5.88;;;23.30;99.90;;;;;;6201823;28;94457;-67
2023/09/04 10:44:51;;;;;;;7.00;6.35;;;23.30;99.90;;;;;;6202259;28;94116;-67
2023/09/04 10:47:54;;;;;;;6.70;6.10;;;23.30;99.90;;;;;;6182134;28;94197;-68
2023/09/04 10:50:57;;;;;;;6.55;5.97;;;23.30;99.90;;;;;;6194821;28;94165;-68
2023/09/04 10:54:01;;;;;;;6.68;6.07;;;23.30;99.90;;;;;;6200956;28;93349;-67
2023/09/04 10:57:05;;;;;;;6.97;6.38;;;23.30;99.90;;;;;;6186343;28;93598;-67
2023/09/04 11:00:08;;;;;;;6.85;6.25;;;23.30;99.90;;;;;;6202251;28;94096;-68
2023/09/04 11:03:18;;;;;;;6.70;6.00;;;23.20;99.90;;;;;;6202489;28;96102;-67
2023/09/04 11:06:20;;;;;;;6.63;6.03;;;23.30;99.90;;;;;;6192208;28;94258;-68
2023/09/04 11:09:23;;;;;;;6.90;6.28;;;23.20;99.90;;;;;;6202656;28;94701;-68
2023/09/04 11:12:27;;;;;;;5.65;5.15;;;23.20;99.90;;;;;;6202193;28;94180;-68
2023/09/04 11:15:29;;;;;;;6.10;5.60;;;23.30;99.90;;;;;;6201166;28;94025;-68
2023/09/04 11:18:33;;;;;;;6.53;5.93;;;23.30;99.90;;;;;;6197352;28;94441;-68
2023/09/04 11:21:37;;;;;;;5.90;5.40;;;23.30;99.90;;;;;;6203336;28;95933;-68
2023/09/04 11:24:40;;;;;;;6.28;5.68;;;23.30;99.90;;;;;;6201140;28;94002;-68
2023/09/04 11:27:44;;;;;;;6.47;5.88;;;23.30;99.90;;;;;;6199839;28;94102;-68
2023/09/04 11:30:47;;;;;;;6.10;5.60;;;23.30;99.90;;;;;;6198207;28;94366;-67
2023/09/04 11:33:50;;;;;;;6.18;5.60;;;23.30;99.90;;;;;;6198241;28;94961;-68
2023/09/04 11:36:52;;;;;;;6.00;5.50;;;23.30;99.90;;;;;;6200438;28;94021;-68
2023/09/04 11:39:57;;;;;;;6.20;5.68;;;23.30;99.90;;;;;;6200407;28;94487;-68
2023/09/04 11:42:59;;;;;;;6.25;5.65;;;23.30;99.90;;;;;;6187901;28;94128;-68
2023/09/04 11:46:02;;;;;;;6.00;5.50;;;23.30;99.90;;;;;;6200685;28;94940;-68
2023/09/04 11:49:08;;;;;;;6.38;5.78;;;23.30;99.90;;;;;;6201382;28;94372;-68
2023/09/04 11:52:12;;;;;;;6.00;5.50;;;23.30;99.90;;;;;;6202143;28;94107;-68
2023/09/04 11:55:13;;;;;;;6.00;5.50;;;23.30;99.90;;;;;;6200353;28;93582;-68
2023/09/04 11:58:15;;;;;;;5.70;5.20;;;23.30;99.90;;;;;;6202362;28;94081;-68
2023/09/04 12:01:17;;;;;;;5.55;5.05;;;23.30;99.90;;;;;;6188543;28;94422;-68
2023/09/04 12:04:21;;;;;;;5.75;5.25;;;23.30;99.90;;;;;;6202159;28;95495;-68
2023/09/04 12:07:23;;;;;;;5.70;5.20;;;23.30;99.90;;;;;;6201283;28;94714;-68
2023/09/04 12:10:25;;;;;;;5.70;5.20;;;23.30;99.90;;;;;;6201276;28;93739;-68
2023/09/04 12:13:27;;;;;;;5.70;5.20;;;23.30;99.90;;;;;;6201167;28;93112;-68
2023/09/04 12:16:30;;;;;;;5.50;5.00;;;23.30;99.90;;;;;;6197784;28;94270;-67
2023/09/04 12:19:33;;;;;;;5.90;5.35;;;23.30;99.90;;;;;;6200140;28;94017;-68
2023/09/04 12:22:36;;;;;;;5.32;4.93;;;23.30;99.90;;;;;;6195348;28;94080;-68
2023/09/04 12:25:39;;;;;;;5.57;5.07;;;23.30;99.90;;;;;;6193984;28;93378;-68
2023/09/04 12:28:41;;;;;;;5.40;4.95;;;23.30;99.90;;;;;;6193182;28;94413;-67
2023/09/04 12:31:44;;;;;;;5.70;5.20;;;23.30;99.90;;;;;;6193302;28;94058;-68
2023/09/04 12:34:50;;;;;;;5.53;5.03;;;23.30;99.90;;;;;;6194710;28;94968;-68
2023/09/04 12:37:54;;;;;;;5.25;4.78;;;23.30;99.90;;;;;;6184014;28;94209;-67
2023/09/04 12:40:56;;;;;;;5.18;4.78;;;23.30;99.90;;;;;;6198026;28;94840;-67
2023/09/04 12:43:58;;;;;;;5.70;5.20;;;23.30;99.90;;;;;;6190664;28;94074;-67
2023/09/04 12:47:00;;;;;;;5.15;4.75;;;23.30;99.90;;;;;;6197434;28;94588;-68
2023/09/04 12:50:04;;;;;;;5.47;4.97;;;23.30;99.90;;;;;;6205770;28;94165;-67
2023/09/04 12:53:06;;;;;;;5.70;5.20;;;23.30;99.90;;;;;;6205212;28;94212;-67
2023/09/04 12:56:09;;;;;;;5.07;4.68;;;23.30;99.90;;;;;;6203016;28;94288;-67
2023/09/04 12:59:11;;;;;;;5.22;4.72;;;23.30;99.90;;;;;;6200363;28;94125;-68
2023/09/04 13:02:14;;;;;;;5.00;4.60;;;23.30;99.90;;;;;;6205304;28;92921;-67
2023/09/04 13:05:18;;;;;;;5.30;4.80;;;23.30;99.90;;;;;;6204161;28;95084;-67
2023/09/04 13:08:20;;;;;;;5.32;4.88;;;23.30;99.90;;;;;;6204515;28;94178;-68
2023/09/04 13:11:22;;;;;;;5.30;4.90;;;23.30;99.90;;;;;;6203731;28;94112;-68
2023/09/04 13:14:24;;;;;;;4.80;4.40;;;23.30;99.90;;;;;;6205025;28;96475;-68
2023/09/04 13:17:26;;;;;;;5.50;5.00;;;23.30;99.90;;;;;;6204564;28;94439;-68
2023/09/04 13:20:29;;;;;;;5.53;5.03;;;23.30;99.90;;;;;;6200689;28;94373;-67
2023/09/04 13:23:31;;;;;;;4.72;4.32;;;23.30;99.90;;;;;;6198806;28;94107;-68
2023/09/04 13:26:33;;;;;;;4.93;4.53;;;23.30;99.90;;;;;;6199201;28;93341;-68
2023/09/04 13:29:35;;;;;;;5.13;4.63;;;23.30;99.90;;;;;;6182831;28;94043;-67
2023/09/04 13:32:37;;;;;;;4.95;4.55;;;23.30;99.90;;;;;;6204172;28;94186;-68
2023/09/04 13:35:41;;;;;;;4.90;4.50;;;23.30;99.90;;;;;;6192200;28;96085;-68
2023/09/04 13:38:43;;;;;;;5.10;4.70;;;23.30;99.90;;;;;;6192073;28;94003;-68
2023/09/04 13:41:45;;;;;;;4.93;4.53;;;23.30;99.90;;;;;;6205116;28;94043;-67
2023/09/04 13:44:47;;;;;;;4.97;4.57;;;23.30;99.90;;;;;;6203793;28;94143;-67
2023/09/04 13:47:49;;;;;;;4.80;4.40;;;23.30;99.90;;;;;;6204271;28;93999;-68
2023/09/04 13:50:52;;;;;;;5.13;4.72;;;23.30;99.90;;;;;;6188298;28;94102;-68
2023/09/04 13:53:54;;;;;;;5.35;4.85;;;23.30;99.90;;;;;;6203649;28;94438;-67
2023/09/04 13:56:56;;;;;;;4.90;4.50;;;23.30;99.90;;;;;;6202804;28;93669;-67
2023/09/04 13:59:58;;;;;;;4.63;4.22;;;23.30;99.90;;;;;;6193082;28;93990;-68
2023/09/04 14:03:00;;;;;;;4.78;4.38;;;23.30;99.90;;;;;;6193814;28;94833;-68
2023/09/04 14:06:03;;;;;;;5.10;4.68;;;23.30;99.90;;;;;;6202252;28;93917;-68
2023/09/04 14:09:06;;;;;;;4.60;4.20;;;23.40;99.90;;;;;;6202293;28;94146;-68
2023/09/04 14:12:10;;;;;;;4.80;4.40;;;23.30;99.90;;;;;;6203689;28;94213;-68
2023/09/04 14:15:12;;;;;;;4.90;4.50;;;23.30;99.90;;;;;;6204455;28;94050;-68
2023/09/04 14:18:14;;;;;;;4.95;4.55;;;23.30;99.90;;;;;;6203622;28;94572;-68
2023/09/04 14:21:17;;;;;;;5.03;4.57;;;23.30;99.90;;;;;;6194916;28;94225;-68
2023/09/04 14:24:19;;;;;;;4.88;4.47;;;23.30;99.90;;;;;;6204815;28;94038;-68
2023/09/04 14:27:21;;;;;;;4.70;4.30;;;23.40;99.90;;;;;;6204115;28;93485;-68
2023/09/04 14:30:23;;;;;;;4.30;3.90;;;23.30;99.90;;;;;;6204581;28;94022;-68
2023/09/04 14:33:26;;;;;;;4.60;4.20;;;23.40;99.90;;;;;;6201089;28;94715;-68
2023/09/04 14:36:29;;;;;;;4.55;4.15;;;23.30;99.90;;;;;;6202326;28;95003;-68
2023/09/04 14:39:32;;;;;;;4.82;4.20;;;23.30;99.90;;;;;;6191106;28;94100;-68
2023/09/04 14:42:35;;;;;;;4.68;4.25;;;23.30;99.90;;;;;;6203166;28;94251;-68
2023/09/04 14:45:38;;;;;;;5.07;4.60;;;23.30;99.90;;;;;;6195176;28;94292;-68
2023/09/04 14:48:40;;;;;;;4.90;4.50;;;23.30;99.90;;;;;;6202955;28;94108;-68
2023/09/04 14:51:44;;;;;;;4.50;4.10;;;23.30;99.90;;;;;;6204214;28;94509;-68
2023/09/04 14:54:46;;;;;;;4.25;3.92;;;23.30;99.90;;;;;;6193976;28;94321;-68
2023/09/04 14:57:51;;;;;;;4.63;4.22;;;23.30;99.90;;;;;;6194725;28;93371;-68
2023/09/04 15:00:54;;;;;;;4.85;4.43;;;23.30;99.90;;;;;;6201926;28;94070;-68
2023/09/04 15:03:56;;;;;;;4.55;4.15;;;23.30;99.90;;;;;;6202509;28;94132;-68
2023/09/04 15:06:59;;;;;;;4.60;4.20;;;23.30;99.90;;;;;;6186868;28;95001;-68
2023/09/04 15:10:01;;;;;;;4.80;4.40;;;23.30;99.90;;;;;;6202677;28;94032;-68
2023/09/04 15:13:03;;;;;;;4.68;4.28;;;23.30;99.90;;;;;;6201838;28;94080;-68
2023/09/04 15:16:06;;;;;;;4.55;4.15;;;23.30;99.90;;;;;;6202342;28;94241;-68
2023/09/04 15:19:08;;;;;;;4.30;3.92;;;23.30;99.90;;;;;;6193434;28;94564;-68
2023/09/04 15:22:12;;;;;;;4.55;4.15;;;23.30;99.90;;;;;;6189493;28;94178;-68
2023/09/04 15:25:15;;;;;;;4.10;3.80;;;23.30;99.90;;;;;;6201162;28;94541;-67
2023/09/04 15:28:18;;;;;;;4.40;4.00;;;23.30;99.90;;;;;;6203070;28;93491;-68
2023/09/04 15:31:22;;;;;;;4.35;3.95;;;23.30;99.90;;;;;;6202067;28;93174;-67
2023/09/04 15:34:25;;;;;;;4.50;4.10;;;23.40;99.90;;;;;;6197711;28;93354;-68
2023/09/04 15:37:29;;;;;;;4.32;3.92;;;23.30;99.90;;;;;;6202693;28;93981;-67
2023/09/04 15:40:34;;;;;;;4.40;4.00;;;23.40;99.90;;;;;;6189743;28;94125;-68
2023/09/04 15:43:37;;;;;;;4.50;4.10;;;23.30;99.90;;;;;;6201194;28;94249;-67
2023/09/04 15:46:40;;;;;;;3.80;3.50;;;23.30;99.90;;;;;;6202215;28;93017;-68
2023/09/04 15:49:42;;;;;;;3.90;3.60;;;23.30;99.90;;;;;;6196387;28;93462;-68
2023/09/04 15:52:47;;;;;;;4.60;4.20;;;23.30;99.90;;;;;;6199459;28;94746;-67
2023/09/04 15:55:54;;;;;;;4.28;3.90;;;23.30;99.90;;;;;;6188093;28;94264;-67
2023/09/04 15:58:57;;;;;;;4.03;3.72;;;23.30;99.90;;;;;;6202189;28;93364;-68